sensor_id;sensor_type;location;lat;lon;timestamp;P1;durP1;ratioP1;P2;durP2;ratioP2
23146;SDS011;11742;53.532;-1.478;2022-08-19T00:01:35;0.60;;;0.60;;
23146;SDS011;11742;53.532;-1.478;2022-08-19T00:04:03;0.43;;;0.43;;
23146;SDS011;11742;53.532;-1.478;2022-08-19T00:06:31;2.42;;;0.60;;
23146;SDS011;11742;53.532;-1.478;2022-08-19T00:08:57;1.50;;;0.88;;
23146;SDS011;11742;53.532;-1.478;2022-08-19T00:11:25;0.82;;;0.70;;
23146;SDS011;11742;53.532;-1.478;2022-08-19T00:13:52;0.82;;;0.80;;
23146;SDS011;11742;53.532;-1.478;2022-08-19T00:16:19;1.50;;;0.82;;
23146;SDS011;11742;53.532;-1.478;2022-08-19T00:18:45;1.83;;;0.82;;
23146;SDS011;11742;53.532;-1.478;2022-08-19T00:21:12;1.10;;;1.00;;
23146;SDS011;11742;53.532;-1.478;2022-08-19T00:23:39;1.35;;;0.90;;
23146;SDS011;11742;53.532;-1.478;2022-08-19T00:26:05;0.90;;;0.63;;
23146;SDS011;11742;53.532;-1.478;2022-08-19T00:28:32;1.48;;;1.13;;
23146;SDS011;11742;53.532;-1.478;2022-08-19T00:31:01;1.25;;;0.90;;
23146;SDS011;11742;53.532;-1.478;2022-08-19T00:33:31;1.20;;;0.82;;
23146;SDS011;11742;53.532;-1.478;2022-08-19T00:35:58;2.83;;;1.17;;
23146;SDS011;11742;53.532;-1.478;2022-08-19T00:38:24;1.85;;;0.98;;
23146;SDS011;11742;53.532;-1.478;2022-08-19T00:40:50;2.05;;;1.00;;
23146;SDS011;11742;53.532;-1.478;2022-08-19T00:43:20;3.15;;;1.00;;
23146;SDS011;11742;53.532;-1.478;2022-08-19T00:45:48;1.55;;;0.80;;
23146;SDS011;11742;53.532;-1.478;2022-08-19T00:48:15;3.17;;;1.05;;
23146;SDS011;11742;53.532;-1.478;2022-08-19T00:50:42;3.72;;;0.98;;
23146;SDS011;11742;53.532;-1.478;2022-08-19T00:53:09;2.13;;;0.82;;
23146;SDS011;11742;53.532;-1.478;2022-08-19T00:55:37;3.85;;;1.30;;
23146;SDS011;11742;53.532;-1.478;2022-08-19T00:58:06;3.50;;;1.05;;
23146;SDS011;11742;53.532;-1.478;2022-08-19T01:00:35;5.05;;;1.10;;
23146;SDS011;11742;53.532;-1.478;2022-08-19T01:03:09;4.13;;;1.55;;
23146;SDS011;11742;53.532;-1.478;2022-08-19T01:05:42;3.47;;;1.38;;
23146;SDS011;11742;53.532;-1.478;2022-08-19T01:08:10;3.28;;;2.00;;
23146;SDS011;11742;53.532;-1.478;2022-08-19T01:10:39;2.75;;;0.93;;
23146;SDS011;11742;53.532;-1.478;2022-08-19T01:13:10;2.57;;;0.87;;
23146;SDS011;11742;53.532;-1.478;2022-08-19T01:15:40;2.80;;;1.13;;
23146;SDS011;11742;53.532;-1.478;2022-08-19T01:18:10;5.60;;;2.17;;
23146;SDS011;11742;53.532;-1.478;2022-08-19T01:20:39;2.33;;;0.93;;
23146;SDS011;11742;53.532;-1.478;2022-08-19T01:23:06;5.07;;;1.35;;
23146;SDS011;11742;53.532;-1.478;2022-08-19T01:25:43;3.78;;;1.55;;
23146;SDS011;11742;53.532;-1.478;2022-08-19T01:28:22;2.60;;;0.98;;
23146;SDS011;11742;53.532;-1.478;2022-08-19T01:30:52;4.10;;;1.23;;
23146;SDS011;11742;53.532;-1.478;2022-08-19T01:33:20;4.10;;;1.60;;
23146;SDS011;11742;53.532;-1.478;2022-08-19T01:35:46;5.13;;;1.10;;
23146;SDS011;11742;53.532;-1.478;2022-08-19T01:38:23;2.70;;;1.17;;
23146;SDS011;11742;53.532;-1.478;2022-08-19T01:40:51;4.78;;;1.40;;
23146;SDS011;11742;53.532;-1.478;2022-08-19T01:43:17;4.68;;;1.25;;
23146;SDS011;11742;53.532;-1.478;2022-08-19T01:45:44;4.63;;;1.17;;
23146;SDS011;11742;53.532;-1.478;2022-08-19T01:48:10;2.50;;;1.25;;
23146;SDS011;11742;53.532;-1.478;2022-08-19T01:50:36;4.30;;;1.27;;
23146;SDS011;11742;53.532;-1.478;2022-08-19T01:53:05;3.58;;;1.38;;
23146;SDS011;11742;53.532;-1.478;2022-08-19T01:55:35;2.67;;;1.15;;
23146;SDS011;11742;53.532;-1.478;2022-08-19T01:58:04;4.80;;;1.20;;
23146;SDS011;11742;53.532;-1.478;2022-08-19T02:00:32;6.32;;;2.10;;
23146;SDS011;11742;53.532;-1.478;2022-08-19T02:02:59;4.47;;;1.40;;
23146;SDS011;11742;53.532;-1.478;2022-08-19T02:05:26;2.25;;;1.10;;
23146;SDS011;11742;53.532;-1.478;2022-08-19T02:07:54;4.32;;;1.35;;
23146;SDS011;11742;53.532;-1.478;2022-08-19T02:10:21;6.25;;;1.65;;
23146;SDS011;11742;53.532;-1.478;2022-08-19T02:12:47;4.10;;;1.15;;
23146;SDS011;11742;53.532;-1.478;2022-08-19T02:15:14;4.53;;;1.67;;
23146;SDS011;11742;53.532;-1.478;2022-08-19T02:17:40;5.40;;;1.35;;
23146;SDS011;11742;53.532;-1.478;2022-08-19T02:20:06;5.18;;;1.25;;
23146;SDS011;11742;53.532;-1.478;2022-08-19T02:22:33;6.10;;;1.77;;
23146;SDS011;11742;53.532;-1.478;2022-08-19T02:25:00;5.00;;;1.30;;
23146;SDS011;11742;53.532;-1.478;2022-08-19T02:27:26;3.45;;;1.33;;
23146;SDS011;11742;53.532;-1.478;2022-08-19T02:29:52;4.15;;;1.20;;
23146;SDS011;11742;53.532;-1.478;2022-08-19T02:32:18;2.40;;;1.27;;
23146;SDS011;11742;53.532;-1.478;2022-08-19T02:34:45;4.10;;;1.27;;
23146;SDS011;11742;53.532;-1.478;2022-08-19T02:37:11;3.45;;;1.25;;
23146;SDS011;11742;53.532;-1.478;2022-08-19T02:39:56;3.10;;;1.23;;
23146;SDS011;11742;53.532;-1.478;2022-08-19T02:42:22;6.57;;;1.70;;
23146;SDS011;11742;53.532;-1.478;2022-08-19T02:44:48;3.20;;;1.50;;
23146;SDS011;11742;53.532;-1.478;2022-08-19T02:47:14;3.35;;;1.30;;
23146;SDS011;11742;53.532;-1.478;2022-08-19T02:49:40;3.88;;;1.50;;
23146;SDS011;11742;53.532;-1.478;2022-08-19T02:52:06;4.95;;;1.75;;
23146;SDS011;11742;53.532;-1.478;2022-08-19T02:54:33;6.13;;;1.33;;
23146;SDS011;11742;53.532;-1.478;2022-08-19T02:56:59;5.47;;;1.40;;
23146;SDS011;11742;53.532;-1.478;2022-08-19T02:59:24;4.88;;;1.17;;
23146;SDS011;11742;53.532;-1.478;2022-08-19T03:01:51;3.65;;;1.30;;
23146;SDS011;11742;53.532;-1.478;2022-08-19T03:04:17;5.00;;;1.23;;
23146;SDS011;11742;53.532;-1.478;2022-08-19T03:06:45;4.35;;;1.52;;
23146;SDS011;11742;53.532;-1.478;2022-08-19T03:09:12;6.80;;;1.40;;
23146;SDS011;11742;53.532;-1.478;2022-08-19T03:11:39;4.82;;;1.38;;
23146;SDS011;11742;53.532;-1.478;2022-08-19T03:14:06;5.90;;;1.65;;
23146;SDS011;11742;53.532;-1.478;2022-08-19T03:16:33;5.65;;;1.30;;
23146;SDS011;11742;53.532;-1.478;2022-08-19T03:19:04;6.10;;;1.52;;
23146;SDS011;11742;53.532;-1.478;2022-08-19T03:21:31;4.13;;;1.35;;
23146;SDS011;11742;53.532;-1.478;2022-08-19T03:24:00;5.30;;;1.45;;
23146;SDS011;11742;53.532;-1.478;2022-08-19T03:26:28;4.93;;;1.38;;
23146;SDS011;11742;53.532;-1.478;2022-08-19T03:28:54;4.63;;;1.48;;
23146;SDS011;11742;53.532;-1.478;2022-08-19T03:31:21;5.90;;;1.30;;
23146;SDS011;11742;53.532;-1.478;2022-08-19T03:33:48;6.22;;;1.60;;
23146;SDS011;11742;53.532;-1.478;2022-08-19T03:36:16;3.88;;;1.17;;
23146;SDS011;11742;53.532;-1.478;2022-08-19T03:38:54;4.13;;;1.50;;
23146;SDS011;11742;53.532;-1.478;2022-08-19T03:41:41;5.20;;;1.50;;
23146;SDS011;11742;53.532;-1.478;2022-08-19T03:44:09;3.92;;;1.38;;
23146;SDS011;11742;53.532;-1.478;2022-08-19T03:46:35;6.63;;;1.92;;
23146;SDS011;11742;53.532;-1.478;2022-08-19T03:49:02;5.60;;;1.40;;
23146;SDS011;11742;53.532;-1.478;2022-08-19T03:51:33;5.38;;;1.50;;
23146;SDS011;11742;53.532;-1.478;2022-08-19T03:54:01;5.80;;;1.38;;
23146;SDS011;11742;53.532;-1.478;2022-08-19T03:56:29;4.78;;;1.65;;
23146;SDS011;11742;53.532;-1.478;2022-08-19T03:58:56;4.88;;;1.30;;
23146;SDS011;11742;53.532;-1.478;2022-08-19T04:01:23;3.33;;;1.17;;
23146;SDS011;11742;53.532;-1.478;2022-08-19T04:03:51;3.53;;;1.30;;
23146;SDS011;11742;53.532;-1.478;2022-08-19T04:06:18;7.75;;;1.77;;
23146;SDS011;11742;53.532;-1.478;2022-08-19T04:08:47;2.67;;;1.27;;
23146;SDS011;11742;53.532;-1.478;2022-08-19T04:11:17;4.70;;;1.40;;
23146;SDS011;11742;53.532;-1.478;2022-08-19T04:13:48;3.03;;;1.38;;
23146;SDS011;11742;53.532;-1.478;2022-08-19T04:16:16;4.78;;;1.40;;
23146;SDS011;11742;53.532;-1.478;2022-08-19T04:18:43;3.92;;;1.35;;
23146;SDS011;11742;53.532;-1.478;2022-08-19T04:21:14;5.55;;;1.27;;
23146;SDS011;11742;53.532;-1.478;2022-08-19T04:23:45;6.53;;;1.75;;
23146;SDS011;11742;53.532;-1.478;2022-08-19T04:26:12;5.45;;;1.27;;
23146;SDS011;11742;53.532;-1.478;2022-08-19T04:28:43;4.55;;;1.25;;
23146;SDS011;11742;53.532;-1.478;2022-08-19T04:31:16;4.28;;;1.30;;
23146;SDS011;11742;53.532;-1.478;2022-08-19T04:33:44;5.10;;;1.45;;
23146;SDS011;11742;53.532;-1.478;2022-08-19T04:36:21;5.88;;;1.33;;
23146;SDS011;11742;53.532;-1.478;2022-08-19T04:38:48;4.35;;;1.08;;
23146;SDS011;11742;53.532;-1.478;2022-08-19T04:41:15;3.20;;;1.08;;
23146;SDS011;11742;53.532;-1.478;2022-08-19T04:44:00;5.75;;;1.08;;
23146;SDS011;11742;53.532;-1.478;2022-08-19T04:46:27;4.85;;;1.40;;
23146;SDS011;11742;53.532;-1.478;2022-08-19T04:48:57;4.70;;;1.23;;
23146;SDS011;11742;53.532;-1.478;2022-08-19T04:51:24;5.03;;;1.30;;
23146;SDS011;11742;53.532;-1.478;2022-08-19T04:53:50;2.53;;;1.27;;
23146;SDS011;11742;53.532;-1.478;2022-08-19T04:56:17;3.92;;;1.20;;
23146;SDS011;11742;53.532;-1.478;2022-08-19T04:58:47;8.00;;;1.45;;
23146;SDS011;11742;53.532;-1.478;2022-08-19T05:01:27;2.35;;;1.13;;
23146;SDS011;11742;53.532;-1.478;2022-08-19T05:03:57;5.05;;;1.38;;
23146;SDS011;11742;53.532;-1.478;2022-08-19T05:06:29;5.03;;;1.55;;
23146;SDS011;11742;53.532;-1.478;2022-08-19T05:08:56;2.95;;;1.30;;
23146;SDS011;11742;53.532;-1.478;2022-08-19T05:11:23;6.68;;;1.40;;
23146;SDS011;11742;53.532;-1.478;2022-08-19T05:13:50;2.72;;;1.13;;
23146;SDS011;11742;53.532;-1.478;2022-08-19T05:16:18;5.05;;;1.40;;
23146;SDS011;11742;53.532;-1.478;2022-08-19T05:18:45;4.43;;;1.27;;
23146;SDS011;11742;53.532;-1.478;2022-08-19T05:21:31;4.72;;;1.85;;
23146;SDS011;11742;53.532;-1.478;2022-08-19T05:24:15;5.57;;;1.10;;
23146;SDS011;11742;53.532;-1.478;2022-08-19T05:26:43;5.20;;;1.48;;
23146;SDS011;11742;53.532;-1.478;2022-08-19T05:29:11;6.93;;;1.33;;
23146;SDS011;11742;53.532;-1.478;2022-08-19T05:31:39;3.08;;;1.00;;
23146;SDS011;11742;53.532;-1.478;2022-08-19T05:34:05;3.53;;;1.10;;
23146;SDS011;11742;53.532;-1.478;2022-08-19T05:36:37;2.13;;;1.10;;
23146;SDS011;11742;53.532;-1.478;2022-08-19T05:39:09;4.55;;;1.40;;
23146;SDS011;11742;53.532;-1.478;2022-08-19T05:41:40;3.72;;;1.20;;
23146;SDS011;11742;53.532;-1.478;2022-08-19T05:44:11;3.97;;;1.02;;
23146;SDS011;11742;53.532;-1.478;2022-08-19T05:46:37;2.22;;;0.98;;
23146;SDS011;11742;53.532;-1.478;2022-08-19T05:49:04;3.83;;;1.15;;
23146;SDS011;11742;53.532;-1.478;2022-08-19T05:51:31;5.28;;;1.40;;
23146;SDS011;11742;53.532;-1.478;2022-08-19T05:54:11;4.50;;;1.58;;
23146;SDS011;11742;53.532;-1.478;2022-08-19T05:56:39;4.35;;;1.25;;
23146;SDS011;11742;53.532;-1.478;2022-08-19T05:59:06;3.78;;;1.10;;
23146;SDS011;11742;53.532;-1.478;2022-08-19T06:01:36;4.10;;;1.20;;
23146;SDS011;11742;53.532;-1.478;2022-08-19T06:04:04;3.72;;;1.23;;
23146;SDS011;11742;53.532;-1.478;2022-08-19T06:06:30;5.57;;;1.80;;
23146;SDS011;11742;53.532;-1.478;2022-08-19T06:08:56;7.13;;;2.40;;
23146;SDS011;11742;53.532;-1.478;2022-08-19T06:11:23;5.57;;;1.25;;
23146;SDS011;11742;53.532;-1.478;2022-08-19T06:13:57;6.45;;;1.35;;
23146;SDS011;11742;53.532;-1.478;2022-08-19T06:16:27;4.35;;;1.52;;
23146;SDS011;11742;53.532;-1.478;2022-08-19T06:18:53;4.35;;;1.55;;
23146;SDS011;11742;53.532;-1.478;2022-08-19T06:21:22;3.15;;;1.35;;
23146;SDS011;11742;53.532;-1.478;2022-08-19T06:23:49;3.72;;;1.20;;
23146;SDS011;11742;53.532;-1.478;2022-08-19T06:26:16;3.17;;;1.05;;
23146;SDS011;11742;53.532;-1.478;2022-08-19T06:28:43;3.60;;;1.30;;
23146;SDS011;11742;53.532;-1.478;2022-08-19T06:31:12;7.82;;;1.30;;
23146;SDS011;11742;53.532;-1.478;2022-08-19T06:33:39;4.82;;;1.30;;
23146;SDS011;11742;53.532;-1.478;2022-08-19T06:36:06;3.72;;;1.33;;
23146;SDS011;11742;53.532;-1.478;2022-08-19T06:38:32;3.30;;;1.52;;
23146;SDS011;11742;53.532;-1.478;2022-08-19T06:41:01;6.50;;;1.63;;
23146;SDS011;11742;53.532;-1.478;2022-08-19T06:43:30;5.97;;;1.48;;
23146;SDS011;11742;53.532;-1.478;2022-08-19T06:45:55;2.88;;;1.30;;
23146;SDS011;11742;53.532;-1.478;2022-08-19T06:48:21;2.97;;;1.20;;
23146;SDS011;11742;53.532;-1.478;2022-08-19T06:50:47;3.67;;;1.33;;
23146;SDS011;11742;53.532;-1.478;2022-08-19T06:53:14;2.53;;;1.10;;
23146;SDS011;11742;53.532;-1.478;2022-08-19T06:55:40;3.70;;;1.05;;
23146;SDS011;11742;53.532;-1.478;2022-08-19T06:58:06;3.60;;;1.40;;
23146;SDS011;11742;53.532;-1.478;2022-08-19T07:00:32;2.33;;;1.02;;
23146;SDS011;11742;53.532;-1.478;2022-08-19T07:02:58;2.78;;;1.10;;
23146;SDS011;11742;53.532;-1.478;2022-08-19T07:05:25;2.75;;;1.27;;
23146;SDS011;11742;53.532;-1.478;2022-08-19T07:07:51;5.97;;;1.50;;
23146;SDS011;11742;53.532;-1.478;2022-08-19T07:10:16;3.58;;;1.27;;
23146;SDS011;11742;53.532;-1.478;2022-08-19T07:12:43;3.92;;;1.20;;
23146;SDS011;11742;53.532;-1.478;2022-08-19T07:15:09;4.45;;;1.40;;
23146;SDS011;11742;53.532;-1.478;2022-08-19T07:17:36;2.53;;;0.80;;
23146;SDS011;11742;53.532;-1.478;2022-08-19T07:20:04;6.03;;;1.13;;
23146;SDS011;11742;53.532;-1.478;2022-08-19T07:22:34;2.95;;;0.90;;
23146;SDS011;11742;53.532;-1.478;2022-08-19T07:25:00;4.07;;;1.20;;
23146;SDS011;11742;53.532;-1.478;2022-08-19T07:27:28;4.07;;;1.40;;
23146;SDS011;11742;53.532;-1.478;2022-08-19T07:29:54;4.95;;;1.52;;
23146;SDS011;11742;53.532;-1.478;2022-08-19T07:32:20;5.05;;;1.65;;
23146;SDS011;11742;53.532;-1.478;2022-08-19T07:34:46;4.72;;;1.40;;
23146;SDS011;11742;53.532;-1.478;2022-08-19T07:37:11;3.67;;;1.10;;
23146;SDS011;11742;53.532;-1.478;2022-08-19T07:39:37;3.47;;;0.95;;
23146;SDS011;11742;53.532;-1.478;2022-08-19T07:42:05;2.47;;;1.02;;
23146;SDS011;11742;53.532;-1.478;2022-08-19T07:44:33;4.80;;;1.25;;
23146;SDS011;11742;53.532;-1.478;2022-08-19T07:46:59;5.35;;;1.38;;
23146;SDS011;11742;53.532;-1.478;2022-08-19T07:49:25;4.60;;;1.35;;
23146;SDS011;11742;53.532;-1.478;2022-08-19T07:54:20;3.92;;;1.10;;
23146;SDS011;11742;53.532;-1.478;2022-08-19T07:56:47;3.92;;;1.25;;
23146;SDS011;11742;53.532;-1.478;2022-08-19T07:59:15;4.07;;;1.10;;
23146;SDS011;11742;53.532;-1.478;2022-08-19T08:01:42;4.45;;;1.13;;
23146;SDS011;11742;53.532;-1.478;2022-08-19T08:04:09;2.63;;;1.15;;
23146;SDS011;11742;53.532;-1.478;2022-08-19T08:06:54;2.50;;;1.10;;
23146;SDS011;11742;53.532;-1.478;2022-08-19T08:09:39;3.80;;;1.30;;
23146;SDS011;11742;53.532;-1.478;2022-08-19T08:12:09;2.28;;;0.82;;
23146;SDS011;11742;53.532;-1.478;2022-08-19T08:14:50;2.63;;;1.20;;
23146;SDS011;11742;53.532;-1.478;2022-08-19T08:17:18;1.35;;;0.90;;
23146;SDS011;11742;53.532;-1.478;2022-08-19T08:19:46;3.33;;;1.17;;
23146;SDS011;11742;53.532;-1.478;2022-08-19T08:22:15;2.38;;;1.05;;
23146;SDS011;11742;53.532;-1.478;2022-08-19T08:25:11;8.52;;;1.65;;
23146;SDS011;11742;53.532;-1.478;2022-08-19T08:27:41;3.95;;;1.60;;
23146;SDS011;11742;53.532;-1.478;2022-08-19T08:30:12;7.55;;;1.30;;
23146;SDS011;11742;53.532;-1.478;2022-08-19T08:32:40;11.32;;;2.20;;
23146;SDS011;11742;53.532;-1.478;2022-08-19T08:35:09;4.53;;;1.48;;
23146;SDS011;11742;53.532;-1.478;2022-08-19T08:37:36;6.07;;;1.50;;
23146;SDS011;11742;53.532;-1.478;2022-08-19T08:40:07;4.90;;;1.20;;
23146;SDS011;11742;53.532;-1.478;2022-08-19T08:42:44;5.05;;;1.75;;
23146;SDS011;11742;53.532;-1.478;2022-08-19T08:45:16;3.00;;;1.05;;
23146;SDS011;11742;53.532;-1.478;2022-08-19T08:47:44;2.17;;;1.13;;
23146;SDS011;11742;53.532;-1.478;2022-08-19T08:50:21;5.55;;;1.10;;
23146;SDS011;11742;53.532;-1.478;2022-08-19T08:53:00;6.20;;;1.23;;
23146;SDS011;11742;53.532;-1.478;2022-08-19T08:55:29;3.38;;;1.15;;
23146;SDS011;11742;53.532;-1.478;2022-08-19T08:57:58;3.47;;;1.10;;
23146;SDS011;11742;53.532;-1.478;2022-08-19T09:00:35;2.90;;;1.10;;
23146;SDS011;11742;53.532;-1.478;2022-08-19T09:03:03;2.08;;;1.00;;
23146;SDS011;11742;53.532;-1.478;2022-08-19T09:06:26;4.90;;;1.40;;
23146;SDS011;11742;53.532;-1.478;2022-08-19T09:10:55;4.05;;;1.10;;
23146;SDS011;11742;53.532;-1.478;2022-08-19T09:13:30;4.80;;;1.10;;
23146;SDS011;11742;53.532;-1.478;2022-08-19T09:16:26;3.08;;;1.38;;
23146;SDS011;11742;53.532;-1.478;2022-08-19T09:18:57;3.40;;;1.15;;
23146;SDS011;11742;53.532;-1.478;2022-08-19T09:21:26;3.35;;;1.20;;
23146;SDS011;11742;53.532;-1.478;2022-08-19T09:23:52;5.28;;;1.40;;
23146;SDS011;11742;53.532;-1.478;2022-08-19T09:26:19;3.88;;;1.20;;
23146;SDS011;11742;53.532;-1.478;2022-08-19T09:28:48;2.45;;;1.20;;
23146;SDS011;11742;53.532;-1.478;2022-08-19T09:31:17;4.70;;;1.20;;
23146;SDS011;11742;53.532;-1.478;2022-08-19T09:33:46;4.45;;;1.13;;
23146;SDS011;11742;53.532;-1.478;2022-08-19T09:36:15;3.25;;;1.25;;
23146;SDS011;11742;53.532;-1.478;2022-08-19T09:38:42;2.80;;;1.05;;
23146;SDS011;11742;53.532;-1.478;2022-08-19T09:41:08;3.53;;;1.10;;
23146;SDS011;11742;53.532;-1.478;2022-08-19T09:43:38;3.08;;;1.30;;
23146;SDS011;11742;53.532;-1.478;2022-08-19T09:46:05;4.28;;;1.90;;
23146;SDS011;11742;53.532;-1.478;2022-08-19T09:48:34;5.32;;;1.33;;
23146;SDS011;11742;53.532;-1.478;2022-08-19T09:51:12;5.82;;;1.52;;
23146;SDS011;11742;53.532;-1.478;2022-08-19T09:53:43;4.68;;;1.40;;
23146;SDS011;11742;53.532;-1.478;2022-08-19T09:56:10;4.82;;;1.55;;
23146;SDS011;11742;53.532;-1.478;2022-08-19T09:58:37;4.88;;;1.17;;
23146;SDS011;11742;53.532;-1.478;2022-08-19T10:01:04;4.97;;;1.48;;
23146;SDS011;11742;53.532;-1.478;2022-08-19T10:03:31;2.63;;;1.20;;
23146;SDS011;11742;53.532;-1.478;2022-08-19T10:06:00;4.88;;;1.25;;
23146;SDS011;11742;53.532;-1.478;2022-08-19T10:08:29;7.47;;;1.52;;
23146;SDS011;11742;53.532;-1.478;2022-08-19T10:10:58;4.70;;;1.40;;
23146;SDS011;11742;53.532;-1.478;2022-08-19T10:13:24;3.45;;;1.10;;
23146;SDS011;11742;53.532;-1.478;2022-08-19T10:15:53;5.47;;;1.38;;
23146;SDS011;11742;53.532;-1.478;2022-08-19T10:18:21;4.13;;;1.20;;
23146;SDS011;11742;53.532;-1.478;2022-08-19T10:20:49;2.40;;;1.00;;
23146;SDS011;11742;53.532;-1.478;2022-08-19T10:23:17;4.03;;;1.00;;
23146;SDS011;11742;53.532;-1.478;2022-08-19T10:25:44;4.18;;;1.30;;
23146;SDS011;11742;53.532;-1.478;2022-08-19T10:28:10;5.47;;;1.20;;
23146;SDS011;11742;53.532;-1.478;2022-08-19T10:30:37;3.15;;;1.20;;
23146;SDS011;11742;53.532;-1.478;2022-08-19T10:33:04;5.13;;;1.10;;
23146;SDS011;11742;53.532;-1.478;2022-08-19T10:35:31;3.38;;;0.98;;
23146;SDS011;11742;53.532;-1.478;2022-08-19T10:37:57;4.63;;;1.08;;
23146;SDS011;11742;53.532;-1.478;2022-08-19T10:40:27;5.75;;;1.10;;
23146;SDS011;11742;53.532;-1.478;2022-08-19T10:42:54;6.15;;;1.25;;
23146;SDS011;11742;53.532;-1.478;2022-08-19T10:45:23;5.07;;;0.90;;
23146;SDS011;11742;53.532;-1.478;2022-08-19T10:47:52;3.70;;;0.98;;
23146;SDS011;11742;53.532;-1.478;2022-08-19T10:50:18;1.83;;;0.77;;
23146;SDS011;11742;53.532;-1.478;2022-08-19T10:53:16;2.38;;;1.02;;
23146;SDS011;11742;53.532;-1.478;2022-08-19T10:55:44;3.78;;;1.13;;
23146;SDS011;11742;53.532;-1.478;2022-08-19T10:58:28;2.58;;;0.93;;
23146;SDS011;11742;53.532;-1.478;2022-08-19T11:00:56;5.03;;;1.25;;
23146;SDS011;11742;53.532;-1.478;2022-08-19T11:03:23;4.35;;;1.10;;
23146;SDS011;11742;53.532;-1.478;2022-08-19T11:05:59;2.90;;;0.90;;
23146;SDS011;11742;53.532;-1.478;2022-08-19T11:08:30;3.20;;;0.93;;
23146;SDS011;11742;53.532;-1.478;2022-08-19T11:10:57;2.30;;;0.95;;
23146;SDS011;11742;53.532;-1.478;2022-08-19T11:13:25;2.42;;;0.88;;
23146;SDS011;11742;53.532;-1.478;2022-08-19T11:18:28;2.47;;;0.80;;
23146;SDS011;11742;53.532;-1.478;2022-08-19T11:20:54;3.72;;;1.20;;
23146;SDS011;11742;53.532;-1.478;2022-08-19T11:23:20;4.75;;;0.93;;
23146;SDS011;11742;53.532;-1.478;2022-08-19T11:25:45;2.28;;;0.90;;
23146;SDS011;11742;53.532;-1.478;2022-08-19T11:28:12;3.80;;;1.05;;
23146;SDS011;11742;53.532;-1.478;2022-08-19T11:30:38;2.95;;;0.95;;
23146;SDS011;11742;53.532;-1.478;2022-08-19T11:33:04;6.22;;;1.23;;
23146;SDS011;11742;53.532;-1.478;2022-08-19T11:35:29;3.83;;;1.08;;
23146;SDS011;11742;53.532;-1.478;2022-08-19T11:37:55;2.53;;;0.93;;
23146;SDS011;11742;53.532;-1.478;2022-08-19T11:40:24;3.30;;;1.20;;
23146;SDS011;11742;53.532;-1.478;2022-08-19T11:42:49;2.90;;;0.95;;
23146;SDS011;11742;53.532;-1.478;2022-08-19T11:45:22;2.83;;;1.08;;
23146;SDS011;11742;53.532;-1.478;2022-08-19T11:47:49;1.23;;;0.70;;
23146;SDS011;11742;53.532;-1.478;2022-08-19T11:50:15;1.40;;;0.70;;
23146;SDS011;11742;53.532;-1.478;2022-08-19T11:52:41;1.95;;;0.80;;
23146;SDS011;11742;53.532;-1.478;2022-08-19T11:55:08;3.53;;;0.90;;
23146;SDS011;11742;53.532;-1.478;2022-08-19T11:57:34;2.40;;;0.88;;
23146;SDS011;11742;53.532;-1.478;2022-08-19T12:00:00;3.83;;;1.02;;
23146;SDS011;11742;53.532;-1.478;2022-08-19T12:02:26;3.88;;;1.15;;
23146;SDS011;11742;53.532;-1.478;2022-08-19T12:04:52;2.80;;;0.70;;
23146;SDS011;11742;53.532;-1.478;2022-08-19T12:07:18;3.35;;;1.00;;
23146;SDS011;11742;53.532;-1.478;2022-08-19T12:09:44;4.07;;;1.45;;
23146;SDS011;11742;53.532;-1.478;2022-08-19T12:12:10;2.60;;;0.82;;
23146;SDS011;11742;53.532;-1.478;2022-08-19T12:14:36;3.25;;;1.23;;
23146;SDS011;11742;53.532;-1.478;2022-08-19T12:17:01;3.20;;;1.00;;
23146;SDS011;11742;53.532;-1.478;2022-08-19T12:19:30;3.20;;;1.13;;
23146;SDS011;11742;53.532;-1.478;2022-08-19T12:21:58;2.90;;;0.90;;
23146;SDS011;11742;53.532;-1.478;2022-08-19T12:24:31;1.70;;;0.70;;
23146;SDS011;11742;53.532;-1.478;2022-08-19T12:26:58;4.40;;;1.20;;
23146;SDS011;11742;53.532;-1.478;2022-08-19T12:29:26;2.70;;;0.70;;
23146;SDS011;11742;53.532;-1.478;2022-08-19T12:31:53;1.50;;;0.90;;
23146;SDS011;11742;53.532;-1.478;2022-08-19T12:34:25;2.33;;;0.80;;
23146;SDS011;11742;53.532;-1.478;2022-08-19T12:36:54;3.78;;;1.10;;
23146;SDS011;11742;53.532;-1.478;2022-08-19T12:39:21;2.97;;;0.90;;
23146;SDS011;11742;53.532;-1.478;2022-08-19T12:41:47;2.63;;;1.00;;
23146;SDS011;11742;53.532;-1.478;2022-08-19T12:44:14;3.80;;;1.17;;
23146;SDS011;11742;53.532;-1.478;2022-08-19T12:46:40;3.85;;;1.10;;
23146;SDS011;11742;53.532;-1.478;2022-08-19T12:49:05;29.90;;;3.95;;
23146;SDS011;11742;53.532;-1.478;2022-08-19T12:51:31;20.27;;;2.25;;
23146;SDS011;11742;53.532;-1.478;2022-08-19T12:53:57;26.65;;;3.28;;
23146;SDS011;11742;53.532;-1.478;2022-08-19T12:56:22;23.48;;;2.17;;
23146;SDS011;11742;53.532;-1.478;2022-08-19T12:58:48;11.15;;;1.50;;
23146;SDS011;11742;53.532;-1.478;2022-08-19T13:01:15;10.32;;;1.42;;
23146;SDS011;11742;53.532;-1.478;2022-08-19T13:03:41;10.93;;;1.20;;
23146;SDS011;11742;53.532;-1.478;2022-08-19T13:06:10;5.15;;;1.08;;
23146;SDS011;11742;53.532;-1.478;2022-08-19T13:08:36;7.18;;;1.35;;
23146;SDS011;11742;53.532;-1.478;2022-08-19T13:11:10;4.40;;;1.02;;
23146;SDS011;11742;53.532;-1.478;2022-08-19T13:13:39;2.13;;;0.82;;
23146;SDS011;11742;53.532;-1.478;2022-08-19T13:16:06;3.60;;;0.90;;
23146;SDS011;11742;53.532;-1.478;2022-08-19T13:18:34;5.10;;;1.20;;
23146;SDS011;11742;53.532;-1.478;2022-08-19T13:21:03;3.50;;;1.08;;
23146;SDS011;11742;53.532;-1.478;2022-08-19T13:23:31;2.70;;;0.93;;
23146;SDS011;11742;53.532;-1.478;2022-08-19T13:25:58;1.10;;;0.73;;
23146;SDS011;11742;53.532;-1.478;2022-08-19T13:28:25;4.40;;;0.90;;
23146;SDS011;11742;53.532;-1.478;2022-08-19T13:30:50;6.88;;;0.90;;
23146;SDS011;11742;53.532;-1.478;2022-08-19T13:33:35;2.10;;;0.82;;
23146;SDS011;11742;53.532;-1.478;2022-08-19T13:36:01;2.50;;;0.70;;
23146;SDS011;11742;53.532;-1.478;2022-08-19T13:38:27;3.20;;;0.85;;
23146;SDS011;11742;53.532;-1.478;2022-08-19T13:40:54;2.60;;;0.80;;
23146;SDS011;11742;53.532;-1.478;2022-08-19T13:43:21;3.90;;;0.77;;
23146;SDS011;11742;53.532;-1.478;2022-08-19T13:45:52;2.55;;;0.70;;
23146;SDS011;11742;53.532;-1.478;2022-08-19T13:48:20;3.90;;;1.00;;
23146;SDS011;11742;53.532;-1.478;2022-08-19T13:50:46;4.65;;;1.15;;
23146;SDS011;11742;53.532;-1.478;2022-08-19T13:53:13;2.17;;;0.60;;
23146;SDS011;11742;53.532;-1.478;2022-08-19T13:55:40;5.15;;;1.23;;
23146;SDS011;11742;53.532;-1.478;2022-08-19T13:58:08;1.95;;;0.65;;
23146;SDS011;11742;53.532;-1.478;2022-08-19T14:00:41;1.65;;;0.80;;
23146;SDS011;11742;53.532;-1.478;2022-08-19T14:03:09;3.35;;;0.88;;
23146;SDS011;11742;53.532;-1.478;2022-08-19T14:05:35;2.78;;;0.63;;
23146;SDS011;11742;53.532;-1.478;2022-08-19T14:08:01;2.72;;;0.90;;
23146;SDS011;11742;53.532;-1.478;2022-08-19T14:10:27;2.95;;;1.00;;
23146;SDS011;11742;53.532;-1.478;2022-08-19T14:12:56;2.40;;;0.73;;
23146;SDS011;11742;53.532;-1.478;2022-08-19T14:15:23;2.30;;;0.70;;
23146;SDS011;11742;53.532;-1.478;2022-08-19T14:17:50;2.42;;;0.75;;
23146;SDS011;11742;53.532;-1.478;2022-08-19T14:20:16;1.83;;;0.60;;
23146;SDS011;11742;53.532;-1.478;2022-08-19T14:22:42;1.58;;;0.60;;
23146;SDS011;11742;53.532;-1.478;2022-08-19T14:25:09;1.25;;;0.70;;
23146;SDS011;11742;53.532;-1.478;2022-08-19T14:27:39;2.75;;;0.75;;
23146;SDS011;11742;53.532;-1.478;2022-08-19T14:30:07;2.35;;;0.70;;
23146;SDS011;11742;53.532;-1.478;2022-08-19T14:32:34;2.65;;;0.80;;
23146;SDS011;11742;53.532;-1.478;2022-08-19T14:35:00;2.85;;;0.65;;
23146;SDS011;11742;53.532;-1.478;2022-08-19T14:37:27;2.25;;;0.70;;
23146;SDS011;11742;53.532;-1.478;2022-08-19T14:39:52;1.35;;;0.80;;
23146;SDS011;11742;53.532;-1.478;2022-08-19T14:42:18;3.05;;;0.63;;
23146;SDS011;11742;53.532;-1.478;2022-08-19T14:44:44;1.52;;;0.50;;
23146;SDS011;11742;53.532;-1.478;2022-08-19T14:47:10;1.95;;;0.60;;
23146;SDS011;11742;53.532;-1.478;2022-08-19T14:49:36;2.58;;;0.88;;